sensor_id;sensor_type;location;lat;lon;timestamp;P1;durP1;ratioP1;P2;durP2;ratioP2
15482;SDS011;7843;50.330;7.312;2022-12-18T00:01:41;7.50;;;3.88;;
15482;SDS011;7843;50.330;7.312;2022-12-18T00:04:03;3.33;;;2.97;;
15482;SDS011;7843;50.330;7.312;2022-12-18T00:06:32;2.67;;;2.47;;
15482;SDS011;7843;50.330;7.312;2022-12-18T00:09:00;4.13;;;3.20;;
15482;SDS011;7843;50.330;7.312;2022-12-18T00:11:28;6.53;;;3.07;;
15482;SDS011;7843;50.330;7.312;2022-12-18T00:13:56;6.10;;;3.70;;
15482;SDS011;7843;50.330;7.312;2022-12-18T00:16:25;9.50;;;5.13;;
15482;SDS011;7843;50.330;7.312;2022-12-18T00:18:54;3.80;;;2.83;;
15482;SDS011;7843;50.330;7.312;2022-12-18T00:21:22;3.58;;;2.83;;
15482;SDS011;7843;50.330;7.312;2022-12-18T00:23:49;7.22;;;4.15;;
15482;SDS011;7843;50.330;7.312;2022-12-18T00:26:20;8.43;;;4.20;;
15482;SDS011;7843;50.330;7.312;2022-12-18T00:28:48;11.93;;;3.85;;
15482;SDS011;7843;50.330;7.312;2022-12-18T00:31:17;8.80;;;3.90;;
15482;SDS011;7843;50.330;7.312;2022-12-18T00:33:49;6.60;;;3.72;;
15482;SDS011;7843;50.330;7.312;2022-12-18T00:36:17;4.90;;;2.53;;
15482;SDS011;7843;50.330;7.312;2022-12-18T00:38:46;4.82;;;3.50;;
15482;SDS011;7843;50.330;7.312;2022-12-18T00:41:15;10.38;;;5.03;;
15482;SDS011;7843;50.330;7.312;2022-12-18T00:44:03;5.30;;;4.47;;
15482;SDS011;7843;50.330;7.312;2022-12-18T00:46:30;14.13;;;3.78;;
15482;SDS011;7843;50.330;7.312;2022-12-18T00:48:57;6.43;;;3.93;;
15482;SDS011;7843;50.330;7.312;2022-12-18T00:51:24;9.23;;;4.57;;
15482;SDS011;7843;50.330;7.312;2022-12-18T00:53:51;10.65;;;3.90;;
15482;SDS011;7843;50.330;7.312;2022-12-18T00:56:18;3.47;;;3.03;;
15482;SDS011;7843;50.330;7.312;2022-12-18T00:58:45;5.90;;;4.13;;
15482;SDS011;7843;50.330;7.312;2022-12-18T01:01:11;13.45;;;5.00;;
15482;SDS011;7843;50.330;7.312;2022-12-18T01:03:38;7.55;;;4.50;;
15482;SDS011;7843;50.330;7.312;2022-12-18T01:06:09;6.63;;;4.35;;
15482;SDS011;7843;50.330;7.312;2022-12-18T01:08:37;4.28;;;3.25;;
15482;SDS011;7843;50.330;7.312;2022-12-18T01:11:08;13.57;;;4.90;;
15482;SDS011;7843;50.330;7.312;2022-12-18T01:13:38;5.82;;;4.65;;
15482;SDS011;7843;50.330;7.312;2022-12-18T01:16:05;15.30;;;5.85;;
15482;SDS011;7843;50.330;7.312;2022-12-18T01:18:32;6.10;;;3.80;;
15482;SDS011;7843;50.330;7.312;2022-12-18T01:20:59;9.95;;;4.93;;
15482;SDS011;7843;50.330;7.312;2022-12-18T01:23:25;11.48;;;5.40;;
15482;SDS011;7843;50.330;7.312;2022-12-18T01:25:52;6.88;;;4.82;;
15482;SDS011;7843;50.330;7.312;2022-12-18T01:28:19;7.40;;;3.83;;
15482;SDS011;7843;50.330;7.312;2022-12-18T01:30:46;6.38;;;4.53;;
15482;SDS011;7843;50.330;7.312;2022-12-18T01:33:12;8.77;;;5.07;;
15482;SDS011;7843;50.330;7.312;2022-12-18T01:35:42;12.15;;;5.55;;
15482;SDS011;7843;50.330;7.312;2022-12-18T01:38:09;8.00;;;5.72;;
15482;SDS011;7843;50.330;7.312;2022-12-18T01:40:36;4.13;;;3.30;;
15482;SDS011;7843;50.330;7.312;2022-12-18T01:43:02;8.23;;;4.55;;
15482;SDS011;7843;50.330;7.312;2022-12-18T01:45:30;8.02;;;4.07;;
15482;SDS011;7843;50.330;7.312;2022-12-18T01:48:16;5.60;;;3.90;;
15482;SDS011;7843;50.330;7.312;2022-12-18T01:50:42;4.38;;;3.55;;
15482;SDS011;7843;50.330;7.312;2022-12-18T01:53:14;15.43;;;5.97;;
15482;SDS011;7843;50.330;7.312;2022-12-18T01:55:43;7.03;;;4.13;;
15482;SDS011;7843;50.330;7.312;2022-12-18T01:58:14;15.27;;;7.63;;
15482;SDS011;7843;50.330;7.312;2022-12-18T02:00:41;11.13;;;7.60;;
15482;SDS011;7843;50.330;7.312;2022-12-18T02:03:08;16.17;;;5.78;;
15482;SDS011;7843;50.330;7.312;2022-12-18T02:05:42;9.65;;;6.35;;
15482;SDS011;7843;50.330;7.312;2022-12-18T02:08:39;11.18;;;4.82;;
15482;SDS011;7843;50.330;7.312;2022-12-18T02:11:12;9.23;;;4.07;;
15482;SDS011;7843;50.330;7.312;2022-12-18T02:13:55;7.00;;;4.68;;
15482;SDS011;7843;50.330;7.312;2022-12-18T02:16:44;6.65;;;4.55;;
15482;SDS011;7843;50.330;7.312;2022-12-18T02:19:27;10.33;;;4.77;;
15482;SDS011;7843;50.330;7.312;2022-12-18T02:22:12;9.25;;;5.30;;
15482;SDS011;7843;50.330;7.312;2022-12-18T02:25:00;10.77;;;5.30;;
15482;SDS011;7843;50.330;7.312;2022-12-18T02:27:37;9.60;;;5.53;;
15482;SDS011;7843;50.330;7.312;2022-12-18T02:30:05;6.18;;;4.90;;
15482;SDS011;7843;50.330;7.312;2022-12-18T02:32:51;7.88;;;4.20;;
15482;SDS011;7843;50.330;7.312;2022-12-18T02:35:26;22.35;;;7.22;;
15482;SDS011;7843;50.330;7.312;2022-12-18T02:37:55;10.87;;;7.13;;
15482;SDS011;7843;50.330;7.312;2022-12-18T02:40:24;8.63;;;5.72;;
15482;SDS011;7843;50.330;7.312;2022-12-18T02:42:53;10.27;;;6.15;;
15482;SDS011;7843;50.330;7.312;2022-12-18T02:45:19;11.07;;;6.35;;
15482;SDS011;7843;50.330;7.312;2022-12-18T02:47:48;11.82;;;5.10;;
15482;SDS011;7843;50.330;7.312;2022-12-18T02:53:20;5.68;;;4.57;;
15482;SDS011;7843;50.330;7.312;2022-12-18T02:56:03;11.88;;;5.38;;
15482;SDS011;7843;50.330;7.312;2022-12-18T03:04:01;9.90;;;4.90;;
15482;SDS011;7843;50.330;7.312;2022-12-18T03:06:37;7.13;;;4.28;;
15482;SDS011;7843;50.330;7.312;2022-12-18T03:09:09;5.03;;;3.35;;
15482;SDS011;7843;50.330;7.312;2022-12-18T03:11:39;16.40;;;6.05;;
15482;SDS011;7843;50.330;7.312;2022-12-18T03:14:28;6.05;;;3.92;;
15482;SDS011;7843;50.330;7.312;2022-12-18T03:17:04;8.80;;;4.32;;
15482;SDS011;7843;50.330;7.312;2022-12-18T03:19:38;7.00;;;4.50;;
15482;SDS011;7843;50.330;7.312;2022-12-18T03:22:07;8.67;;;4.43;;
15482;SDS011;7843;50.330;7.312;2022-12-18T03:24:35;7.35;;;4.53;;
15482;SDS011;7843;50.330;7.312;2022-12-18T03:27:06;6.80;;;3.90;;
15482;SDS011;7843;50.330;7.312;2022-12-18T03:29:38;4.68;;;3.92;;
15482;SDS011;7843;50.330;7.312;2022-12-18T03:32:20;4.80;;;3.83;;
15482;SDS011;7843;50.330;7.312;2022-12-18T03:34:55;6.30;;;3.85;;
15482;SDS011;7843;50.330;7.312;2022-12-18T03:37:27;13.10;;;5.07;;
15482;SDS011;7843;50.330;7.312;2022-12-18T03:39:53;5.03;;;2.88;;
15482;SDS011;7843;50.330;7.312;2022-12-18T03:45:08;7.30;;;4.45;;
15482;SDS011;7843;50.330;7.312;2022-12-18T03:47:43;6.97;;;4.10;;
15482;SDS011;7843;50.330;7.312;2022-12-18T03:50:22;9.32;;;4.10;;
15482;SDS011;7843;50.330;7.312;2022-12-18T03:55:58;7.15;;;3.83;;
15482;SDS011;7843;50.330;7.312;2022-12-18T03:58:27;8.50;;;5.05;;
15482;SDS011;7843;50.330;7.312;2022-12-18T04:00:56;7.25;;;4.38;;
15482;SDS011;7843;50.330;7.312;2022-12-18T04:03:25;4.03;;;3.20;;
15482;SDS011;7843;50.330;7.312;2022-12-18T04:05:54;4.40;;;3.80;;
15482;SDS011;7843;50.330;7.312;2022-12-18T04:08:23;4.93;;;4.43;;
15482;SDS011;7843;50.330;7.312;2022-12-18T04:10:50;6.37;;;4.43;;
15482;SDS011;7843;50.330;7.312;2022-12-18T04:13:24;19.27;;;7.53;;
15482;SDS011;7843;50.330;7.312;2022-12-18T04:15:55;12.90;;;4.97;;
15482;SDS011;7843;50.330;7.312;2022-12-18T04:18:21;6.63;;;4.70;;
15482;SDS011;7843;50.330;7.312;2022-12-18T04:20:48;6.30;;;4.00;;
15482;SDS011;7843;50.330;7.312;2022-12-18T04:23:15;6.45;;;3.85;;
15482;SDS011;7843;50.330;7.312;2022-12-18T04:25:41;5.78;;;4.50;;
15482;SDS011;7843;50.330;7.312;2022-12-18T04:28:08;19.90;;;5.07;;
15482;SDS011;7843;50.330;7.312;2022-12-18T04:30:35;14.93;;;4.47;;
15482;SDS011;7843;50.330;7.312;2022-12-18T04:33:01;4.53;;;4.03;;
15482;SDS011;7843;50.330;7.312;2022-12-18T04:35:28;10.60;;;5.57;;
15482;SDS011;7843;50.330;7.312;2022-12-18T04:37:54;6.35;;;4.75;;
15482;SDS011;7843;50.330;7.312;2022-12-18T04:40:21;8.57;;;6.18;;
15482;SDS011;7843;50.330;7.312;2022-12-18T04:42:48;10.90;;;5.53;;
15482;SDS011;7843;50.330;7.312;2022-12-18T04:45:14;20.67;;;6.45;;
15482;SDS011;7843;50.330;7.312;2022-12-18T04:47:41;10.47;;;6.63;;
15482;SDS011;7843;50.330;7.312;2022-12-18T04:50:08;5.63;;;4.60;;
15482;SDS011;7843;50.330;7.312;2022-12-18T04:52:35;6.10;;;4.07;;
15482;SDS011;7843;50.330;7.312;2022-12-18T04:55:01;12.30;;;4.55;;
15482;SDS011;7843;50.330;7.312;2022-12-18T04:57:28;17.85;;;5.03;;
15482;SDS011;7843;50.330;7.312;2022-12-18T04:59:55;4.63;;;3.72;;
15482;SDS011;7843;50.330;7.312;2022-12-18T05:02:21;12.05;;;4.65;;
15482;SDS011;7843;50.330;7.312;2022-12-18T05:04:48;5.40;;;4.20;;
15482;SDS011;7843;50.330;7.312;2022-12-18T05:07:15;7.68;;;4.55;;
15482;SDS011;7843;50.330;7.312;2022-12-18T05:09:41;8.15;;;3.58;;
15482;SDS011;7843;50.330;7.312;2022-12-18T05:12:08;19.40;;;2.78;;
15482;SDS011;7843;50.330;7.312;2022-12-18T05:14:35;6.22;;;4.97;;
15482;SDS011;7843;50.330;7.312;2022-12-18T05:17:01;5.93;;;3.85;;
15482;SDS011;7843;50.330;7.312;2022-12-18T05:19:28;9.97;;;4.07;;
15482;SDS011;7843;50.330;7.312;2022-12-18T05:21:55;8.60;;;5.03;;
15482;SDS011;7843;50.330;7.312;2022-12-18T05:24:21;4.07;;;3.33;;
15482;SDS011;7843;50.330;7.312;2022-12-18T05:26:48;6.68;;;4.40;;
15482;SDS011;7843;50.330;7.312;2022-12-18T05:29:15;3.58;;;3.13;;
15482;SDS011;7843;50.330;7.312;2022-12-18T05:31:41;13.40;;;4.60;;
15482;SDS011;7843;50.330;7.312;2022-12-18T05:34:08;3.75;;;3.33;;
15482;SDS011;7843;50.330;7.312;2022-12-18T05:36:34;5.82;;;4.50;;
15482;SDS011;7843;50.330;7.312;2022-12-18T05:39:01;7.15;;;3.67;;
15482;SDS011;7843;50.330;7.312;2022-12-18T05:41:28;7.95;;;3.28;;
15482;SDS011;7843;50.330;7.312;2022-12-18T05:43:55;6.10;;;3.25;;
15482;SDS011;7843;50.330;7.312;2022-12-18T05:46:21;9.13;;;4.22;;
15482;SDS011;7843;50.330;7.312;2022-12-18T05:48:48;6.35;;;4.22;;
15482;SDS011;7843;50.330;7.312;2022-12-18T05:51:17;4.80;;;2.53;;
15482;SDS011;7843;50.330;7.312;2022-12-18T05:53:46;6.95;;;3.67;;
15482;SDS011;7843;50.330;7.312;2022-12-18T05:56:15;3.30;;;3.00;;
15482;SDS011;7843;50.330;7.312;2022-12-18T05:58:44;9.88;;;4.65;;
15482;SDS011;7843;50.330;7.312;2022-12-18T06:01:16;11.88;;;3.28;;
15482;SDS011;7843;50.330;7.312;2022-12-18T06:03:45;5.20;;;3.67;;
15482;SDS011;7843;50.330;7.312;2022-12-18T06:06:36;11.80;;;5.95;;
15482;SDS011;7843;50.330;7.312;2022-12-18T06:08:59;9.82;;;5.07;;
15482;SDS011;7843;50.330;7.312;2022-12-18T06:11:27;10.97;;;5.17;;
15482;SDS011;7843;50.330;7.312;2022-12-18T06:13:54;5.13;;;3.40;;
15482;SDS011;7843;50.330;7.312;2022-12-18T06:16:23;4.43;;;3.42;;
15482;SDS011;7843;50.330;7.312;2022-12-18T06:18:50;7.13;;;3.97;;
15482;SDS011;7843;50.330;7.312;2022-12-18T06:21:16;7.15;;;4.63;;
15482;SDS011;7843;50.330;7.312;2022-12-18T06:23:43;5.93;;;3.33;;
15482;SDS011;7843;50.330;7.312;2022-12-18T06:26:10;5.15;;;3.13;;
15482;SDS011;7843;50.330;7.312;2022-12-18T06:28:38;8.25;;;4.35;;
15482;SDS011;7843;50.330;7.312;2022-12-18T06:31:06;6.15;;;3.28;;
15482;SDS011;7843;50.330;7.312;2022-12-18T06:33:33;10.20;;;4.55;;
15482;SDS011;7843;50.330;7.312;2022-12-18T06:36:07;8.15;;;5.00;;
15482;SDS011;7843;50.330;7.312;2022-12-18T06:38:36;5.93;;;4.00;;
15482;SDS011;7843;50.330;7.312;2022-12-18T06:41:06;15.27;;;4.07;;
15482;SDS011;7843;50.330;7.312;2022-12-18T06:43:34;6.78;;;3.80;;
15482;SDS011;7843;50.330;7.312;2022-12-18T06:46:01;8.52;;;3.50;;
15482;SDS011;7843;50.330;7.312;2022-12-18T06:48:29;5.22;;;4.20;;
15482;SDS011;7843;50.330;7.312;2022-12-18T06:50:56;8.90;;;4.63;;
15482;SDS011;7843;50.330;7.312;2022-12-18T06:53:23;5.85;;;4.13;;
15482;SDS011;7843;50.330;7.312;2022-12-18T06:55:50;3.75;;;3.38;;
15482;SDS011;7843;50.330;7.312;2022-12-18T06:58:17;6.68;;;4.10;;
15482;SDS011;7843;50.330;7.312;2022-12-18T07:00:43;8.13;;;3.87;;
15482;SDS011;7843;50.330;7.312;2022-12-18T07:03:10;6.45;;;4.03;;
15482;SDS011;7843;50.330;7.312;2022-12-18T07:05:40;6.38;;;3.92;;
15482;SDS011;7843;50.330;7.312;2022-12-18T07:08:07;12.52;;;3.05;;
15482;SDS011;7843;50.330;7.312;2022-12-18T07:10:39;5.68;;;3.85;;
15482;SDS011;7843;50.330;7.312;2022-12-18T07:13:11;15.40;;;5.93;;
15482;SDS011;7843;50.330;7.312;2022-12-18T07:15:37;6.87;;;3.87;;
15482;SDS011;7843;50.330;7.312;2022-12-18T07:18:04;4.75;;;3.22;;
15482;SDS011;7843;50.330;7.312;2022-12-18T07:20:31;2.45;;;2.25;;
15482;SDS011;7843;50.330;7.312;2022-12-18T07:22:57;3.83;;;3.30;;
15482;SDS011;7843;50.330;7.312;2022-12-18T07:25:24;6.47;;;4.10;;
15482;SDS011;7843;50.330;7.312;2022-12-18T07:27:51;5.45;;;4.13;;
15482;SDS011;7843;50.330;7.312;2022-12-18T07:30:17;12.13;;;5.00;;
15482;SDS011;7843;50.330;7.312;2022-12-18T07:32:44;5.78;;;3.33;;
15482;SDS011;7843;50.330;7.312;2022-12-18T07:35:10;5.68;;;3.05;;
15482;SDS011;7843;50.330;7.312;2022-12-18T07:37:37;8.37;;;5.23;;
15482;SDS011;7843;50.330;7.312;2022-12-18T07:40:04;9.90;;;4.18;;
15482;SDS011;7843;50.330;7.312;2022-12-18T07:42:31;12.07;;;3.65;;
15482;SDS011;7843;50.330;7.312;2022-12-18T07:44:58;8.63;;;5.05;;
15482;SDS011;7843;50.330;7.312;2022-12-18T07:47:26;15.63;;;5.35;;
15482;SDS011;7843;50.330;7.312;2022-12-18T07:49:54;8.70;;;5.00;;
15482;SDS011;7843;50.330;7.312;2022-12-18T07:52:21;6.32;;;4.78;;
15482;SDS011;7843;50.330;7.312;2022-12-18T07:54:50;8.48;;;5.15;;
15482;SDS011;7843;50.330;7.312;2022-12-18T07:57:17;7.47;;;4.57;;
15482;SDS011;7843;50.330;7.312;2022-12-18T07:59:59;11.27;;;5.50;;
15482;SDS011;7843;50.330;7.312;2022-12-18T08:02:25;11.48;;;5.40;;
15482;SDS011;7843;50.330;7.312;2022-12-18T08:04:52;9.70;;;4.80;;
15482;SDS011;7843;50.330;7.312;2022-12-18T08:07:19;7.72;;;4.90;;
15482;SDS011;7843;50.330;7.312;2022-12-18T08:09:45;13.55;;;5.55;;
15482;SDS011;7843;50.330;7.312;2022-12-18T08:12:12;8.30;;;5.03;;
15482;SDS011;7843;50.330;7.312;2022-12-18T08:14:38;12.82;;;5.07;;
15482;SDS011;7843;50.330;7.312;2022-12-18T08:17:05;4.93;;;4.30;;
15482;SDS011;7843;50.330;7.312;2022-12-18T08:19:32;13.98;;;7.30;;
15482;SDS011;7843;50.330;7.312;2022-12-18T08:21:59;9.95;;;5.05;;
15482;SDS011;7843;50.330;7.312;2022-12-18T08:24:25;14.70;;;5.68;;
15482;SDS011;7843;50.330;7.312;2022-12-18T08:26:52;20.88;;;9.13;;
15482;SDS011;7843;50.330;7.312;2022-12-18T08:29:32;18.73;;;8.98;;
15482;SDS011;7843;50.330;7.312;2022-12-18T08:31:59;21.55;;;11.82;;
15482;SDS011;7843;50.330;7.312;2022-12-18T08:34:26;42.83;;;16.63;;
15482;SDS011;7843;50.330;7.312;2022-12-18T08:36:53;26.30;;;11.75;;
15482;SDS011;7843;50.330;7.312;2022-12-18T08:39:19;27.73;;;12.88;;
15482;SDS011;7843;50.330;7.312;2022-12-18T08:41:46;33.22;;;17.58;;
15482;SDS011;7843;50.330;7.312;2022-12-18T08:44:35;31.33;;;14.88;;
15482;SDS011;7843;50.330;7.312;2022-12-18T08:47:05;19.80;;;10.20;;
15482;SDS011;7843;50.330;7.312;2022-12-18T08:49:33;25.23;;;13.13;;
15482;SDS011;7843;50.330;7.312;2022-12-18T08:52:00;24.80;;;13.83;;
15482;SDS011;7843;50.330;7.312;2022-12-18T08:54:28;29.10;;;13.77;;
15482;SDS011;7843;50.330;7.312;2022-12-18T08:56:55;28.77;;;14.07;;
15482;SDS011;7843;50.330;7.312;2022-12-18T08:59:22;32.17;;;14.52;;
15482;SDS011;7843;50.330;7.312;2022-12-18T09:01:49;26.95;;;13.55;;
15482;SDS011;7843;50.330;7.312;2022-12-18T09:04:16;28.50;;;13.68;;
15482;SDS011;7843;50.330;7.312;2022-12-18T09:06:43;33.13;;;16.40;;
15482;SDS011;7843;50.330;7.312;2022-12-18T09:09:10;33.08;;;16.25;;
15482;SDS011;7843;50.330;7.312;2022-12-18T09:11:37;30.15;;;12.35;;
15482;SDS011;7843;50.330;7.312;2022-12-18T09:14:04;36.88;;;15.35;;
15482;SDS011;7843;50.330;7.312;2022-12-18T09:16:31;15.85;;;8.75;;
15482;SDS011;7843;50.330;7.312;2022-12-18T09:19:01;30.85;;;13.30;;
15482;SDS011;7843;50.330;7.312;2022-12-18T09:21:30;17.42;;;10.20;;
15482;SDS011;7843;50.330;7.312;2022-12-18T09:23:59;27.43;;;14.37;;
15482;SDS011;7843;50.330;7.312;2022-12-18T09:26:26;23.58;;;12.45;;
15482;SDS011;7843;50.330;7.312;2022-12-18T09:28:53;27.60;;;15.93;;
15482;SDS011;7843;50.330;7.312;2022-12-18T09:31:20;31.40;;;13.55;;
15482;SDS011;7843;50.330;7.312;2022-12-18T09:33:48;33.47;;;15.30;;
15482;SDS011;7843;50.330;7.312;2022-12-18T09:36:16;38.47;;;17.70;;
15482;SDS011;7843;50.330;7.312;2022-12-18T09:38:45;38.97;;;18.42;;
15482;SDS011;7843;50.330;7.312;2022-12-18T09:44:22;30.92;;;16.90;;
15482;SDS011;7843;50.330;7.312;2022-12-18T09:52:58;37.38;;;19.08;;
15482;SDS011;7843;50.330;7.312;2022-12-18T09:55:34;37.38;;;18.70;;
15482;SDS011;7843;50.330;7.312;2022-12-18T10:00:39;31.63;;;15.23;;
15482;SDS011;7843;50.330;7.312;2022-12-18T10:03:10;36.10;;;18.40;;
15482;SDS011;7843;50.330;7.312;2022-12-18T10:14:09;39.03;;;19.08;;
15482;SDS011;7843;50.330;7.312;2022-12-18T10:17:30;49.25;;;21.52;;
15482;SDS011;7843;50.330;7.312;2022-12-18T10:20:15;89.72;;;36.80;;
15482;SDS011;7843;50.330;7.312;2022-12-18T10:28:31;54.50;;;24.38;;
15482;SDS011;7843;50.330;7.312;2022-12-18T10:31:01;74.30;;;32.83;;
15482;SDS011;7843;50.330;7.312;2022-12-18T10:33:29;59.17;;;28.35;;
15482;SDS011;7843;50.330;7.312;2022-12-18T10:35:58;93.82;;;39.63;;
15482;SDS011;7843;50.330;7.312;2022-12-18T10:38:27;72.03;;;31.33;;
15482;SDS011;7843;50.330;7.312;2022-12-18T10:40:56;41.03;;;21.53;;
15482;SDS011;7843;50.330;7.312;2022-12-18T10:43:38;43.72;;;23.00;;
15482;SDS011;7843;50.330;7.312;2022-12-18T10:51:27;96.97;;;40.38;;
15482;SDS011;7843;50.330;7.312;2022-12-18T10:54:05;54.53;;;27.17;;
15482;SDS011;7843;50.330;7.312;2022-12-18T10:56:40;47.60;;;24.30;;
15482;SDS011;7843;50.330;7.312;2022-12-18T10:59:09;54.38;;;26.50;;
15482;SDS011;7843;50.330;7.312;2022-12-18T11:04:20;61.00;;;29.17;;
15482;SDS011;7843;50.330;7.312;2022-12-18T11:06:53;51.22;;;25.80;;
15482;SDS011;7843;50.330;7.312;2022-12-18T11:09:22;35.22;;;19.83;;
15482;SDS011;7843;50.330;7.312;2022-12-18T11:11:52;26.77;;;14.93;;
15482;SDS011;7843;50.330;7.312;2022-12-18T11:16:56;18.25;;;10.35;;
15482;SDS011;7843;50.330;7.312;2022-12-18T11:19:45;21.58;;;12.05;;
15482;SDS011;7843;50.330;7.312;2022-12-18T11:22:21;27.75;;;12.02;;
15482;SDS011;7843;50.330;7.312;2022-12-18T11:24:57;62.77;;;28.07;;
15482;SDS011;7843;50.330;7.312;2022-12-18T11:33:44;23.88;;;12.32;;
15482;SDS011;7843;50.330;7.312;2022-12-18T11:36:53;34.40;;;16.55;;
15482;SDS011;7843;50.330;7.312;2022-12-18T11:40:09;30.80;;;16.20;;
15482;SDS011;7843;50.330;7.312;2022-12-18T11:45:18;27.73;;;14.95;;
15482;SDS011;7843;50.330;7.312;2022-12-18T11:53:02;35.00;;;17.60;;
15482;SDS011;7843;50.330;7.312;2022-12-18T11:55:39;55.03;;;25.83;;
15482;SDS011;7843;50.330;7.312;2022-12-18T11:58:37;33.60;;;17.80;;
15482;SDS011;7843;50.330;7.312;2022-12-18T12:01:16;26.58;;;13.77;;
15482;SDS011;7843;50.330;7.312;2022-12-18T12:03:55;30.85;;;17.02;;
15482;SDS011;7843;50.330;7.312;2022-12-18T12:09:39;27.85;;;14.73;;
15482;SDS011;7843;50.330;7.312;2022-12-18T12:20:42;27.42;;;14.35;;
15482;SDS011;7843;50.330;7.312;2022-12-18T12:26:05;26.58;;;14.40;;
15482;SDS011;7843;50.330;7.312;2022-12-18T12:36:52;28.70;;;15.07;;
15482;SDS011;7843;50.330;7.312;2022-12-18T12:39:34;32.72;;;18.20;;
15482;SDS011;7843;50.330;7.312;2022-12-18T12:42:10;43.80;;;22.85;;
15482;SDS011;7843;50.330;7.312;2022-12-18T12:45:24;38.97;;;18.35;;
15482;SDS011;7843;50.330;7.312;2022-12-18T12:47:57;35.30;;;17.42;;
15482;SDS011;7843;50.330;7.312;2022-12-18T12:50:24;36.60;;;20.15;;
15482;SDS011;7843;50.330;7.312;2022-12-18T12:52:52;37.60;;;18.95;;
15482;SDS011;7843;50.330;7.312;2022-12-18T12:55:22;24.38;;;13.77;;
15482;SDS011;7843;50.330;7.312;2022-12-18T12:57:55;24.85;;;13.20;;
15482;SDS011;7843;50.330;7.312;2022-12-18T13:00:23;27.13;;;15.32;;
15482;SDS011;7843;50.330;7.312;2022-12-18T13:03:11;29.95;;;15.25;;
15482;SDS011;7843;50.330;7.312;2022-12-18T13:05:51;29.60;;;15.30;;
15482;SDS011;7843;50.330;7.312;2022-12-18T13:10:53;29.58;;;16.00;;
15482;SDS011;7843;50.330;7.312;2022-12-18T13:13:52;34.35;;;17.42;;
15482;SDS011;7843;50.330;7.312;2022-12-18T13:16:21;30.42;;;15.25;;
15482;SDS011;7843;50.330;7.312;2022-12-18T13:18:50;29.75;;;15.90;;
15482;SDS011;7843;50.330;7.312;2022-12-18T13:21:24;33.70;;;16.50;;
15482;SDS011;7843;50.330;7.312;2022-12-18T13:23:53;27.77;;;15.30;;
15482;SDS011;7843;50.330;7.312;2022-12-18T13:28:53;30.02;;;16.50;;
15482;SDS011;7843;50.330;7.312;2022-12-18T13:34:25;31.27;;;17.17;;
15482;SDS011;7843;50.330;7.312;2022-12-18T13:36:54;39.08;;;19.35;;
15482;SDS011;7843;50.330;7.312;2022-12-18T13:39:32;34.17;;;16.53;;
15482;SDS011;7843;50.330;7.312;2022-12-18T13:44:34;28.45;;;15.68;;
15482;SDS011;7843;50.330;7.312;2022-12-18T13:47:24;27.85;;;14.60;;
15482;SDS011;7843;50.330;7.312;2022-12-18T13:49:59;26.13;;;14.23;;
15482;SDS011;7843;50.330;7.312;2022-12-18T13:52:36;25.50;;;13.67;;
15482;SDS011;7843;50.330;7.312;2022-12-18T13:55:07;24.90;;;13.23;;
15482;SDS011;7843;50.330;7.312;2022-12-18T13:57:42;28.70;;;14.80;;
15482;SDS011;7843;50.330;7.312;2022-12-18T14:00:17;26.30;;;13.57;;
15482;SDS011;7843;50.330;7.312;2022-12-18T14:02:49;26.73;;;13.07;;
15482;SDS011;7843;50.330;7.312;2022-12-18T14:07:49;25.70;;;13.18;;
15482;SDS011;7843;50.330;7.312;2022-12-18T14:10:16;29.33;;;14.75;;
15482;SDS011;7843;50.330;7.312;2022-12-18T14:13:04;29.17;;;14.80;;
15482;SDS011;7843;50.330;7.312;2022-12-18T14:15:35;29.63;;;14.75;;
15482;SDS011;7843;50.330;7.312;2022-12-18T14:21:02;25.23;;;14.13;;
15482;SDS011;7843;50.330;7.312;2022-12-18T14:23:34;30.40;;;14.35;;
15482;SDS011;7843;50.330;7.312;2022-12-18T14:26:17;30.38;;;14.95;;
15482;SDS011;7843;50.330;7.312;2022-12-18T14:28:47;28.08;;;14.13;;
15482;SDS011;7843;50.330;7.312;2022-12-18T14:31:20;28.23;;;14.87;;
15482;SDS011;7843;50.330;7.312;2022-12-18T14:33:49;33.58;;;15.85;;
15482;SDS011;7843;50.330;7.312;2022-12-18T14:36:17;31.27;;;16.08;;
15482;SDS011;7843;50.330;7.312;2022-12-18T14:38:55;26.20;;;14.33;;
15482;SDS011;7843;50.330;7.312;2022-12-18T14:41:24;30.95;;;14.52;;
15482;SDS011;7843;50.330;7.312;2022-12-18T14:43:52;32.22;;;15.48;;
15482;SDS011;7843;50.330;7.312;2022-12-18T14:48:59;27.77;;;14.80;;
15482;SDS011;7843;50.330;7.312;2022-12-18T14:51:49;27.70;;;14.07;;
15482;SDS011;7843;50.330;7.312;2022-12-18T14:54:19;27.65;;;14.10;;
15482;SDS011;7843;50.330;7.312;2022-12-18T14:56:47;28.40;;;14.65;;
15482;SDS011;7843;50.330;7.312;2022-12-18T14:59:20;28.27;;;13.82;;
15482;SDS011;7843;50.330;7.312;2022-12-18T15:05:02;25.95;;;14.05;;
15482;SDS011;7843;50.330;7.312;2022-12-18T15:07:39;26.50;;;12.88;;
15482;SDS011;7843;50.330;7.312;2022-12-18T15:10:18;28.33;;;14.63;;
15482;SDS011;7843;50.330;7.312;2022-12-18T15:12:47;26.33;;;12.23;;
15482;SDS011;7843;50.330;7.312;2022-12-18T15:17:59;23.08;;;11.82;;
15482;SDS011;7843;50.330;7.312;2022-12-18T15:20:27;27.98;;;13.98;;
15482;SDS011;7843;50.330;7.312;2022-12-18T15:22:57;25.25;;;11.85;;
15482;SDS011;7843;50.330;7.312;2022-12-18T15:25:27;25.65;;;12.60;;
15482;SDS011;7843;50.330;7.312;2022-12-18T15:28:03;25.58;;;12.55;;
15482;SDS011;7843;50.330;7.312;2022-12-18T15:30:43;26.80;;;12.40;;
15482;SDS011;7843;50.330;7.312;2022-12-18T15:33:33;27.13;;;14.52;;
15482;SDS011;7843;50.330;7.312;2022-12-18T15:36:03;35.03;;;16.90;;
15482;SDS011;7843;50.330;7.312;2022-12-18T15:38:38;25.27;;;13.18;;
15482;SDS011;7843;50.330;7.312;2022-12-18T15:41:05;32.28;;;16.52;;
15482;SDS011;7843;50.330;7.312;2022-12-18T15:43:34;28.58;;;14.63;;
15482;SDS011;7843;50.330;7.312;2022-12-18T15:46:14;32.95;;;16.15;;
15482;SDS011;7843;50.330;7.312;2022-12-18T15:48:43;34.37;;;17.70;;
15482;SDS011;7843;50.330;7.312;2022-12-18T15:51:20;33.38;;;15.02;;
15482;SDS011;7843;50.330;7.312;2022-12-18T15:53:53;30.63;;;14.48;;
15482;SDS011;7843;50.330;7.312;2022-12-18T15:56:22;30.75;;;13.88;;
15482;SDS011;7843;50.330;7.312;2022-12-18T15:59:11;28.83;;;14.75;;
15482;SDS011;7843;50.330;7.312;2022-12-18T16:01:43;31.00;;;13.80;;
15482;SDS011;7843;50.330;7.312;2022-12-18T16:04:15;27.90;;;11.98;;
15482;SDS011;7843;50.330;7.312;2022-12-18T16:06:46;31.23;;;15.52;;
15482;SDS011;7843;50.330;7.312;2022-12-18T16:09:34;39.13;;;18.75;;
15482;SDS011;7843;50.330;7.312;2022-12-18T16:12:01;33.80;;;20.30;;
15482;SDS011;7843;50.330;7.312;2022-12-18T16:14:28;37.88;;;18.02;;
15482;SDS011;7843;50.330;7.312;2022-12-18T16:16:57;33.55;;;18.00;;
15482;SDS011;7843;50.330;7.312;2022-12-18T16:19:28;29.55;;;15.35;;
15482;SDS011;7843;50.330;7.312;2022-12-18T16:21:57;38.20;;;19.20;;
15482;SDS011;7843;50.330;7.312;2022-12-18T16:24:24;41.85;;;20.52;;
15482;SDS011;7843;50.330;7.312;2022-12-18T16:26:53;39.30;;;19.50;;
15482;SDS011;7843;50.330;7.312;2022-12-18T16:29:20;38.80;;;17.80;;
15482;SDS011;7843;50.330;7.312;2022-12-18T16:31:51;31.23;;;15.13;;
15482;SDS011;7843;50.330;7.312;2022-12-18T16:34:19;42.97;;;20.05;;
15482;SDS011;7843;50.330;7.312;2022-12-18T16:36:48;33.67;;;16.13;;
15482;SDS011;7843;50.330;7.312;2022-12-18T16:39:16;46.45;;;20.08;;
15482;SDS011;7843;50.330;7.312;2022-12-18T16:41:43;52.53;;;21.60;;
15482;SDS011;7843;50.330;7.312;2022-12-18T16:44:10;37.67;;;16.57;;
15482;SDS011;7843;50.330;7.312;2022-12-18T16:46:37;41.53;;;18.83;;
15482;SDS011;7843;50.330;7.312;2022-12-18T16:49:05;50.65;;;19.88;;
15482;SDS011;7843;50.330;7.312;2022-12-18T16:51:31;33.55;;;17.52;;
15482;SDS011;7843;50.330;7.312;2022-12-18T16:53:58;40.13;;;19.15;;
15482;SDS011;7843;50.330;7.312;2022-12-18T16:56:25;34.53;;;16.13;;
15482;SDS011;7843;50.330;7.312;2022-12-18T16:58:52;34.80;;;15.93;;
15482;SDS011;7843;50.330;7.312;2022-12-18T17:01:20;42.33;;;19.10;;
15482;SDS011;7843;50.330;7.312;2022-12-18T17:03:58;88.80;;;44.55;;